Mansfield Lahm Regional Airport
KMFD : rendu visible

Aérodrome :











RETROUVEZ-NOUS SUR...

 
LOGIN :

S'inscrire | Disclaimer

   EN    FR    IT 

 









Légende :    VFR   VFR Marginal   IFR   IFR Intensif   IFR Très Intensif
Visi : 
Plafond : 
>= 8 km
>= 3000ft
5 à 8 km
1000 à 3000 ft
1500m à 5 km
500 à 1000 ft
800 à 1500m
200 à 500 ft
< 800m
< 200 ft
Symboles :   Orages  Brouillard  Fortes neiges  Fortes précipitations  Vent > 20 kt






- Altitude de l'aérodrome : 1297 ft


KMFD - Mansfield Lahm Regional

DERNIER METAR :
  • 170952Z AUTO 12006KT 10SM CLR M03/M10 A3015 RMK AO2 SLP221 T10281100

METARs EXPIRÉS :
  • 170852Z AUTO 12006KT 10SM CLR M04/M09 A3015 RMK AO2 SLP222 T10391094 57010
  • 170752Z AUTO 12007KT 10SM CLR M03/M09 A3017 RMK AO2 SLP228 T10331089

TAF KMFD
Valide du 17 à 06h jusqu'au 18 à 06h UTC


170520Z 1706/1806 07006KT P6SM SKC
FM171500 15005KT P6SM FEW250
FM180000 12005KT P6SM BKN200



MET'MAP, la Météo Aéronautique d'un coup d'oeil ! - Copyright ORBIFLY Décembre 2007 - Disclaimer

ORBIFLY MET'MAP TEAM :

Programmation & Développement : Alexandra Zaïnal
Conception & Développement : Baudouin d'Aumeries
Co-Programmation & Développement : Marc-Olivier Méhu
Soutien technique & logistique : Manuel Goepfert

Contact : metmap@orbifly.com




SOURCES & CREDITS :

   NOAA       Earth
Advisory